createdAt,value
2022-12-27T00:00:03.173Z,1.56
2022-12-27T00:01:03.061Z,1.70
2022-12-27T00:02:03.033Z,1.71
2022-12-27T00:03:03.027Z,1.71
2022-12-27T00:04:02.903Z,1.72
2022-12-27T10:47:52.434Z,0.50
2022-12-27T10:49:19.530Z,0.50
2022-12-27T10:49:53.633Z,0.50
2022-12-27T10:50:53.449Z,0.50
2022-12-27T10:51:53.293Z,0.50
2022-12-27T10:52:57.518Z,0.50
2022-12-27T10:53:53.552Z,0.50
2022-12-27T10:54:53.652Z,0.50
2022-12-27T10:55:53.716Z,0.50
2022-12-27T10:56:53.687Z,0.50
2022-12-27T10:57:53.927Z,0.50
2022-12-27T10:58:58.820Z,0.39
2022-12-27T10:59:53.745Z,0.34
2022-12-27T11:00:53.848Z,0.34
2022-12-27T11:01:53.985Z,0.34
2022-12-27T11:02:53.891Z,0.34
2022-12-27T11:03:53.885Z,0.34
2022-12-27T11:04:54.029Z,0.34
2022-12-27T11:05:54.066Z,0.34
2022-12-27T11:06:53.960Z,0.34
2022-12-27T11:07:54.056Z,0.34
2022-12-27T11:08:53.978Z,0.34
2022-12-27T11:09:53.969Z,0.34
2022-12-27T11:10:54.059Z,0.34
2022-12-27T11:11:54.039Z,0.34
2022-12-27T11:12:54.049Z,0.34
2022-12-27T11:13:54.065Z,0.34
2022-12-27T11:14:54.060Z,0.34
2022-12-27T11:15:58.273Z,0.34
2022-12-27T11:16:54.102Z,0.34
2022-12-27T11:17:54.090Z,0.34
2022-12-27T11:18:54.144Z,0.34
2022-12-27T11:19:54.079Z,0.34
2022-12-27T11:20:54.280Z,0.34
2022-12-27T11:21:54.135Z,0.34
2022-12-27T11:22:54.192Z,0.34
2022-12-27T11:23:54.332Z,0.34
2022-12-27T11:24:54.195Z,0.34
2022-12-27T11:25:54.319Z,0.37
2022-12-27T11:26:54.589Z,0.43
2022-12-27T11:27:54.351Z,0.41
2022-12-27T11:28:54.304Z,0.49
2022-12-27T11:29:54.321Z,0.54
2022-12-27T11:30:54.361Z,0.56
2022-12-27T11:31:54.481Z,0.56
2022-12-27T11:32:54.344Z,0.53
2022-12-27T11:33:54.420Z,0.60
2022-12-27T11:34:54.411Z,0.59
2022-12-27T11:35:54.443Z,0.54
2022-12-27T11:36:54.506Z,0.52
2022-12-27T11:37:54.519Z,0.50
2022-12-27T11:38:54.534Z,0.56
2022-12-27T11:39:54.609Z,0.62
2022-12-27T11:40:54.603Z,0.66
2022-12-27T11:41:54.675Z,0.65
2022-12-27T11:42:54.762Z,0.56
2022-12-27T11:43:54.659Z,0.48
2022-12-27T11:44:54.704Z,0.40
2022-12-27T11:45:54.687Z,0.34
2022-12-27T11:46:59.011Z,0.34
2022-12-27T11:47:54.729Z,0.34
2022-12-27T11:48:56.389Z,0.34
2022-12-27T11:49:54.811Z,0.34
2022-12-27T11:50:54.925Z,0.34
2022-12-27T11:51:54.826Z,0.34
2022-12-27T11:52:54.891Z,0.34
2022-12-27T11:53:56.564Z,0.34
2022-12-27T11:54:54.806Z,0.34
2022-12-27T11:55:54.851Z,0.34
2022-12-27T11:56:54.914Z,0.34
2022-12-27T11:57:54.849Z,0.34
2022-12-27T11:58:55.006Z,0.34
2022-12-27T11:59:54.931Z,0.36
2022-12-27T12:00:57.004Z,0.39
2022-12-27T12:01:55.144Z,0.39
2022-12-27T12:02:55.197Z,0.40
2022-12-27T12:03:55.025Z,0.45
2022-12-27T12:04:55.128Z,0.49
2022-12-27T12:05:55.078Z,0.62
2022-12-27T12:06:55.120Z,0.69
2022-12-27T12:07:55.046Z,0.77
2022-12-27T12:08:55.111Z,0.68
2022-12-27T12:09:55.099Z,0.86
2022-12-27T12:10:55.156Z,0.73
2022-12-27T12:11:55.510Z,0.52
2022-12-27T12:12:55.095Z,0.63
2022-12-27T12:13:55.135Z,0.91
2022-12-27T12:14:55.156Z,0.71
2022-12-27T12:15:55.183Z,0.65
2022-12-27T12:16:55.523Z,0.60
2022-12-27T12:17:55.108Z,0.73
2022-12-27T12:18:55.233Z,0.65
2022-12-27T12:19:55.235Z,0.54
2022-12-27T12:20:55.279Z,0.50
2022-12-27T12:21:55.362Z,0.55
2022-12-27T12:22:55.392Z,0.47
2022-12-27T12:23:55.254Z,0.54
2022-12-27T12:24:55.231Z,0.78
2022-12-27T12:25:55.382Z,0.90
2022-12-27T12:26:56.096Z,0.76
2022-12-27T12:27:55.375Z,0.69
2022-12-27T12:28:58.754Z,0.57
2022-12-27T12:29:55.400Z,0.58
2022-12-27T12:30:55.397Z,0.59
2022-12-27T12:31:55.498Z,0.62
2022-12-27T12:32:55.395Z,0.77
2022-12-27T12:33:55.533Z,0.90
2022-12-27T12:34:55.446Z,0.65
2022-12-27T12:35:55.402Z,0.79
2022-12-27T12:36:55.410Z,0.66
2022-12-27T12:37:55.503Z,0.69
2022-12-27T12:38:55.478Z,1.01
2022-12-27T12:39:55.439Z,0.95
2022-12-27T12:40:55.422Z,1.15
2022-12-27T12:41:55.412Z,1.17
2022-12-27T12:42:55.464Z,1.15
2022-12-27T12:43:55.445Z,0.82
2022-12-27T12:44:55.585Z,0.82
2022-12-27T12:45:55.547Z,0.88
2022-12-27T12:46:55.674Z,0.83
2022-12-27T12:47:55.631Z,0.83
2022-12-27T12:48:55.503Z,0.66
2022-12-27T12:49:55.503Z,0.75
2022-12-27T12:50:55.564Z,0.93
2022-12-27T12:51:55.520Z,1.14
2022-12-27T12:52:55.542Z,1.34
2022-12-27T12:53:55.502Z,1.70
2022-12-27T12:54:55.474Z,1.20
2022-12-27T12:55:55.658Z,1.27
2022-12-27T12:56:55.563Z,1.24
2022-12-27T12:57:55.719Z,1.44
2022-12-27T12:58:55.650Z,1.47
2022-12-27T12:59:55.565Z,1.64
2022-12-27T13:00:55.674Z,1.46
2022-12-27T13:01:55.710Z,1.23
2022-12-27T13:02:55.685Z,1.17
2022-12-27T13:03:55.541Z,1.23
2022-12-27T13:04:55.533Z,1.24
2022-12-27T13:05:55.651Z,1.31
2022-12-27T13:06:55.597Z,1.36
2022-12-27T13:07:55.660Z,1.70
2022-12-27T13:08:55.622Z,2.18
2022-12-27T13:09:55.669Z,2.05
2022-12-27T13:10:55.701Z,1.44
2022-12-27T13:11:55.595Z,1.60
2022-12-27T13:12:55.680Z,1.39
2022-12-27T13:13:55.668Z,1.54
2022-12-27T13:14:55.595Z,1.61
2022-12-27T13:15:55.659Z,1.31
2022-12-27T13:16:55.696Z,1.00
2022-12-27T13:17:55.646Z,1.34
2022-12-27T13:18:55.721Z,1.17
2022-12-27T13:19:55.621Z,1.61
2022-12-27T13:20:55.595Z,1.79
2022-12-27T13:21:55.693Z,1.96
2022-12-27T13:22:55.628Z,1.51
2022-12-27T13:23:55.768Z,0.96
2022-12-27T13:24:55.602Z,0.71
2022-12-27T13:25:55.706Z,0.73
2022-12-27T13:26:55.707Z,0.69
2022-12-27T13:27:55.783Z,0.77
2022-12-27T13:28:55.788Z,0.85
2022-12-27T13:29:56.803Z,0.78
2022-12-27T13:30:55.788Z,0.61
2022-12-27T13:31:55.841Z,0.57
2022-12-27T13:32:55.972Z,0.64
2022-12-27T13:33:55.827Z,0.68
2022-12-27T13:34:55.932Z,0.94
2022-12-27T13:35:55.884Z,1.51
2022-12-27T13:36:55.918Z,1.39
2022-12-27T13:37:55.747Z,1.29
2022-12-27T13:38:55.755Z,1.31
2022-12-27T13:39:55.791Z,1.46
2022-12-27T13:40:55.719Z,1.37
2022-12-27T13:41:55.798Z,1.36
2022-12-27T13:42:55.751Z,1.14
2022-12-27T13:43:55.684Z,1.41
2022-12-27T13:44:55.709Z,1.56
2022-12-27T13:45:55.776Z,1.60
2022-12-27T13:46:55.769Z,1.69
2022-12-27T13:47:55.797Z,1.48
2022-12-27T13:48:55.755Z,1.96
2022-12-27T13:49:55.826Z,1.56
2022-12-27T13:50:55.825Z,1.34
2022-12-27T13:51:55.787Z,1.11
2022-12-27T13:52:59.767Z,1.17
2022-12-27T13:53:55.877Z,1.18
2022-12-27T13:54:55.851Z,1.14
2022-12-27T13:55:55.795Z,0.91
2022-12-27T13:56:56.007Z,1.04
2022-12-27T13:57:56.031Z,1.29
2022-12-27T13:58:59.532Z,1.71
2022-12-27T13:59:55.914Z,1.72
2022-12-27T14:00:56.003Z,1.83
2022-12-27T14:01:55.974Z,2.02
2022-12-27T14:02:56.054Z,2.45
2022-12-27T14:03:55.851Z,2.48
2022-12-27T14:04:59.546Z,2.25
2022-12-27T14:05:55.874Z,2.13
2022-12-27T14:06:55.792Z,2.25
2022-12-27T14:07:55.886Z,2.21
2022-12-27T14:08:55.870Z,1.87
2022-12-27T14:09:55.889Z,1.43
2022-12-27T14:11:00.723Z,1.49
2022-12-27T14:11:55.834Z,1.49
2022-12-27T14:12:55.923Z,1.53
2022-12-27T14:13:55.921Z,1.64
2022-12-27T14:14:55.901Z,1.88
2022-12-27T14:15:56.012Z,2.15
2022-12-27T14:16:59.449Z,1.77
2022-12-27T14:17:55.856Z,1.78
2022-12-27T14:18:55.949Z,1.87
2022-12-27T14:19:55.974Z,2.19
2022-12-27T14:20:55.893Z,2.56
2022-12-27T14:21:55.896Z,2.73
2022-12-27T14:22:55.832Z,2.72
2022-12-27T14:23:55.839Z,2.85
2022-12-27T14:24:55.892Z,3.28
2022-12-27T14:25:55.915Z,5.16
2022-12-27T14:26:55.861Z,21.37
2022-12-27T14:27:55.886Z,15.82
2022-12-27T14:28:59.768Z,7.07
2022-12-27T14:29:55.818Z,5.50
2022-12-27T14:30:55.878Z,5.18
2022-12-27T14:31:55.855Z,7.21
2022-12-27T14:32:55.787Z,9.10
2022-12-27T14:33:55.807Z,12.04
2022-12-27T14:34:59.326Z,10.26
2022-12-27T14:35:55.820Z,7.36
2022-12-27T14:36:55.786Z,5.93
2022-12-27T14:37:55.733Z,5.62
2022-12-27T14:38:55.762Z,5.89
2022-12-27T14:39:55.756Z,5.43
2022-12-27T14:40:55.758Z,4.93
2022-12-27T14:41:55.860Z,5.84
2022-12-27T14:42:55.720Z,6.87
2022-12-27T14:43:55.823Z,5.62
2022-12-27T14:44:55.636Z,7.80
2022-12-27T14:45:57.877Z,9.11
2022-12-27T14:46:55.610Z,6.95
2022-12-27T14:47:55.618Z,5.29
2022-12-27T14:48:55.543Z,4.61
2022-12-27T14:49:55.604Z,3.94
2022-12-27T14:50:55.620Z,3.70
2022-12-27T14:52:10.327Z,4.56
2022-12-27T14:52:55.570Z,3.95
2022-12-27T14:53:55.483Z,3.84
2022-12-27T14:54:55.574Z,3.36
2022-12-27T14:55:55.555Z,3.45
2022-12-27T14:56:55.488Z,3.39
2022-12-27T14:57:55.436Z,3.82
2022-12-27T14:58:55.552Z,3.34
2022-12-27T14:59:55.464Z,5.06
2022-12-27T15:00:55.377Z,3.85
2022-12-27T15:01:55.492Z,3.65
2022-12-27T15:02:55.609Z,4.96
2022-12-27T15:03:55.460Z,5.70
2022-12-27T15:04:55.435Z,8.63
2022-12-27T15:05:55.451Z,9.90
2022-12-27T15:06:55.380Z,9.33
2022-12-27T15:07:55.331Z,9.38
2022-12-27T15:08:55.373Z,10.30
2022-12-27T15:09:55.336Z,9.05
2022-12-27T15:10:55.340Z,8.98
2022-12-27T15:11:55.340Z,7.64
2022-12-27T15:12:55.374Z,8.76
2022-12-27T15:13:55.337Z,9.50
2022-12-27T15:14:55.294Z,8.20
2022-12-27T15:15:55.312Z,6.97
2022-12-27T15:16:55.323Z,7.87
2022-12-27T15:17:55.228Z,9.52
2022-12-27T15:18:55.251Z,9.59
2022-12-27T15:19:55.198Z,9.70
2022-12-27T15:20:55.165Z,6.47
2022-12-27T15:21:55.173Z,6.49
2022-12-27T15:22:55.130Z,8.03
2022-12-27T15:23:55.117Z,8.10
2022-12-27T15:24:55.111Z,7.70
2022-12-27T15:25:55.139Z,6.14
2022-12-27T15:26:55.046Z,6.69
2022-12-27T15:27:55.114Z,7.10
2022-12-27T15:28:55.029Z,6.95
2022-12-27T15:29:55.134Z,6.10
2022-12-27T15:30:55.271Z,6.52
2022-12-27T15:31:55.036Z,7.10
2022-12-27T15:32:55.068Z,13.24
2022-12-27T15:33:54.998Z,16.90
2022-12-27T15:34:54.998Z,18.17
2022-12-27T15:35:55.172Z,16.00
2022-12-27T15:36:54.948Z,13.46
2022-12-27T15:37:55.008Z,9.14
2022-12-27T15:38:55.281Z,9.18
2022-12-27T15:39:55.035Z,12.19
2022-12-27T15:40:54.974Z,17.74
2022-12-27T15:41:55.035Z,22.84
2022-12-27T15:42:55.092Z,28.40
2022-12-27T15:43:55.038Z,33.74
2022-12-27T15:44:54.996Z,33.59
2022-12-27T15:45:55.029Z,29.35
2022-12-27T15:46:55.070Z,27.36
2022-12-27T15:47:55.049Z,26.06
2022-12-27T15:48:55.036Z,24.57
2022-12-27T15:49:55.005Z,20.87
2022-12-27T15:50:55.023Z,21.29
2022-12-27T15:51:55.030Z,18.88
2022-12-27T15:52:55.066Z,14.50
2022-12-27T15:53:55.342Z,17.30
2022-12-27T15:54:55.062Z,18.07
2022-12-27T15:55:55.073Z,14.86
2022-12-27T15:56:55.117Z,13.78
2022-12-27T15:57:55.191Z,14.95
2022-12-27T15:58:55.060Z,15.08
2022-12-27T15:59:55.105Z,16.22
2022-12-27T16:00:55.175Z,14.48
2022-12-27T16:01:55.190Z,14.16
2022-12-27T16:02:55.297Z,12.35
2022-12-27T16:03:55.270Z,13.15
2022-12-27T16:04:55.141Z,13.67
2022-12-27T16:05:55.161Z,11.27
2022-12-27T16:06:59.012Z,11.44
2022-12-27T16:07:55.062Z,11.28
2022-12-27T16:08:55.158Z,11.32
2022-12-27T16:09:55.341Z,11.94
2022-12-27T16:10:55.132Z,13.67
2022-12-27T16:11:55.090Z,18.69
2022-12-27T16:12:55.232Z,18.74
2022-12-27T16:13:55.206Z,10.78
2022-12-27T16:14:55.172Z,8.54
2022-12-27T16:15:55.202Z,8.00
2022-12-27T16:16:55.254Z,7.16
2022-12-27T16:17:55.166Z,8.01
2022-12-27T16:18:55.307Z,8.94
2022-12-27T16:19:55.204Z,10.70
2022-12-27T16:20:55.173Z,12.81
2022-12-27T16:21:55.247Z,14.37
2022-12-27T16:22:55.167Z,15.18
2022-12-27T16:23:55.191Z,13.30
2022-12-27T16:24:55.153Z,13.43
2022-12-27T16:25:55.260Z,13.03
2022-12-27T16:26:55.237Z,11.46
2022-12-27T16:27:55.153Z,11.81
2022-12-27T16:28:55.161Z,12.91
2022-12-27T16:29:55.133Z,13.62
2022-12-27T16:30:55.290Z,12.17
2022-12-27T16:31:55.268Z,10.80
2022-12-27T16:32:55.245Z,7.52
2022-12-27T16:33:55.358Z,7.18
2022-12-27T16:34:55.474Z,6.75
2022-12-27T16:35:55.303Z,5.90
2022-12-27T16:36:55.204Z,5.84
2022-12-27T16:37:55.195Z,6.65
2022-12-27T16:38:55.160Z,7.26
2022-12-27T16:39:55.171Z,7.16
2022-12-27T16:40:55.265Z,7.26
2022-12-27T16:41:55.124Z,7.76
2022-12-27T16:42:55.243Z,8.16
2022-12-27T16:43:55.146Z,8.14
2022-12-27T16:44:55.210Z,7.72
2022-12-27T16:45:55.187Z,6.61
2022-12-27T16:46:55.254Z,13.53
2022-12-27T16:47:55.180Z,15.66
2022-12-27T16:48:55.151Z,13.56
2022-12-27T16:49:55.299Z,12.07
2022-12-27T16:50:55.196Z,8.99
2022-12-27T16:51:55.332Z,8.72
2022-12-27T16:52:55.137Z,7.98
2022-12-27T16:53:55.165Z,8.98
2022-12-27T16:54:55.246Z,8.94
2022-12-27T16:55:55.354Z,10.93
2022-12-27T16:56:55.227Z,13.02
2022-12-27T16:57:55.112Z,16.13
2022-12-27T16:58:55.185Z,17.46
2022-12-27T16:59:55.194Z,18.72
2022-12-27T17:00:55.229Z,16.47
2022-12-27T17:01:55.334Z,16.93
2022-12-27T17:02:55.135Z,18.88
2022-12-27T17:03:55.189Z,20.48
2022-12-27T17:04:55.469Z,16.07
2022-12-27T17:06:55.378Z,10.49
2022-12-27T17:07:55.242Z,10.27
2022-12-27T17:08:55.124Z,10.61
2022-12-27T17:09:55.115Z,11.00
2022-12-27T17:10:55.243Z,11.74
2022-12-27T17:11:55.249Z,13.69
2022-12-27T17:12:55.162Z,14.11
2022-12-27T17:13:55.318Z,15.28
2022-12-27T17:14:55.233Z,18.29
2022-12-27T17:15:55.145Z,21.52
2022-12-27T18:43:54.893Z,12.33
2022-12-27T18:44:54.894Z,11.77
2022-12-27T18:45:54.992Z,12.49
2022-12-27T18:46:54.913Z,12.84
2022-12-27T18:47:55.971Z,12.55
2022-12-27T18:48:54.859Z,13.33
2022-12-27T18:49:54.844Z,14.87
2022-12-27T18:50:54.867Z,16.55
2022-12-27T18:51:54.868Z,16.74
2022-12-27T18:52:55.260Z,18.60
2022-12-27T18:53:54.903Z,21.89
2022-12-27T18:54:54.966Z,26.24
2022-12-27T18:55:54.903Z,27.13
2022-12-27T18:56:54.930Z,23.95
2022-12-27T18:57:55.002Z,19.29
2022-12-27T18:58:54.816Z,19.95
2022-12-27T18:59:54.837Z,20.86
2022-12-27T19:00:54.918Z,21.44
2022-12-27T19:01:54.997Z,22.56
2022-12-27T19:02:55.012Z,22.65
2022-12-27T19:03:55.038Z,23.19
2022-12-27T19:04:54.863Z,22.28
2022-12-27T19:05:54.886Z,21.67
2022-12-27T19:06:55.018Z,22.18
2022-12-27T19:07:54.988Z,21.95
2022-12-27T19:08:53.899Z,22.04
2022-12-27T19:09:54.934Z,22.66
2022-12-27T19:10:54.797Z,25.00
2022-12-27T19:11:54.724Z,25.68
2022-12-27T19:12:54.764Z,27.05
2022-12-27T19:13:54.751Z,27.58
2022-12-27T19:14:54.755Z,28.30
2022-12-27T19:15:54.874Z,28.75
2022-12-27T19:16:54.821Z,27.95
2022-12-27T19:17:54.738Z,27.14
2022-12-27T19:18:54.755Z,26.13
2022-12-27T19:19:54.751Z,25.61
2022-12-27T19:20:54.763Z,24.63
2022-12-27T19:21:54.682Z,26.19
2022-12-27T19:22:54.709Z,28.21
2022-12-27T19:23:54.697Z,32.16
2022-12-27T19:24:54.715Z,34.07
2022-12-27T19:25:54.769Z,35.42
2022-12-27T19:26:54.752Z,34.46
2022-12-27T19:27:54.694Z,31.40
2022-12-27T19:28:54.818Z,31.12
2022-12-27T19:29:54.793Z,30.37
2022-12-27T19:30:54.774Z,31.18
2022-12-27T19:31:54.939Z,34.25
2022-12-27T19:32:54.773Z,34.88
2022-12-27T19:33:54.780Z,40.62
2022-12-27T19:34:54.830Z,45.21
2022-12-27T19:35:54.807Z,48.84
2022-12-27T19:36:54.798Z,50.42
2022-12-27T19:37:54.704Z,52.55
2022-12-27T19:38:54.839Z,56.39
2022-12-27T19:39:54.691Z,60.68
2022-12-27T19:41:01.278Z,67.97
2022-12-27T19:42:00.329Z,68.20
2022-12-27T19:42:54.726Z,68.25
2022-12-27T19:43:54.744Z,69.20
2022-12-27T19:44:54.758Z,63.77
2022-12-27T19:45:54.739Z,46.81
2022-12-27T19:46:54.794Z,38.28
2022-12-27T19:47:54.730Z,34.17
2022-12-27T19:49:31.742Z,26.99
2022-12-27T19:49:54.735Z,21.88
2022-12-27T19:50:54.732Z,21.25
2022-12-27T19:51:54.775Z,19.90
2022-12-27T19:52:54.722Z,19.46
2022-12-27T19:53:57.998Z,21.13
2022-12-27T19:54:54.716Z,18.90
2022-12-27T19:55:54.723Z,18.07
2022-12-27T19:56:54.735Z,18.22
2022-12-27T19:57:54.765Z,17.65
2022-12-27T19:58:54.807Z,18.47
2022-12-27T19:59:55.011Z,23.77
2022-12-27T20:00:54.889Z,28.53
2022-12-27T20:01:55.058Z,35.52
2022-12-27T20:02:54.985Z,40.81
2022-12-27T20:03:54.859Z,44.54
2022-12-27T20:04:54.976Z,46.10
2022-12-27T20:06:13.838Z,46.80
2022-12-27T20:06:54.818Z,44.11
2022-12-27T20:07:54.825Z,38.95
2022-12-27T20:08:54.862Z,36.55
2022-12-27T20:09:54.988Z,36.50
2022-12-27T20:10:55.495Z,36.44
2022-12-27T20:11:54.903Z,37.62
2022-12-27T20:12:54.911Z,35.68
2022-12-27T20:13:54.877Z,36.55
2022-12-27T20:14:54.981Z,39.48
2022-12-27T20:15:55.019Z,44.91
2022-12-27T20:16:54.942Z,47.64
2022-12-27T20:17:54.930Z,50.62
2022-12-27T20:18:55.062Z,51.94
2022-12-27T20:19:55.915Z,53.24
2022-12-27T20:20:54.981Z,55.86
2022-12-27T20:21:54.963Z,57.05
2022-12-27T20:22:55.023Z,55.76
2022-12-27T20:23:55.010Z,52.20
2022-12-27T20:24:55.121Z,47.98
2022-12-27T20:25:55.022Z,46.96
2022-12-27T20:26:55.103Z,42.22
2022-12-27T20:27:55.176Z,41.04
2022-12-27T20:28:55.084Z,41.66
2022-12-27T20:29:55.089Z,33.47
2022-12-27T20:30:55.135Z,24.72
2022-12-27T20:31:55.276Z,24.74
2022-12-27T20:32:55.179Z,23.96
2022-12-27T20:33:55.089Z,21.07
2022-12-27T20:34:55.152Z,19.24
2022-12-27T20:35:55.153Z,18.89
2022-12-27T20:36:55.115Z,27.22
2022-12-27T20:37:55.221Z,35.41
2022-12-27T20:38:55.230Z,36.83
2022-12-27T20:39:55.203Z,33.71
2022-12-27T20:40:55.181Z,34.04
2022-12-27T20:41:55.187Z,36.35
2022-12-27T20:42:55.221Z,37.32
2022-12-27T20:43:55.239Z,41.89
2022-12-27T20:44:55.246Z,45.45
2022-12-27T20:45:55.286Z,47.08
2022-12-27T20:46:55.231Z,47.13
2022-12-27T20:47:55.349Z,49.35
2022-12-27T20:48:55.293Z,48.86
2022-12-27T20:49:55.469Z,48.43
2022-12-27T20:50:55.432Z,47.41
2022-12-27T20:51:55.346Z,46.80
2022-12-27T20:52:55.507Z,45.93
2022-12-27T20:53:55.491Z,38.67
2022-12-27T20:54:55.447Z,29.83
2022-12-27T20:55:55.526Z,25.25
2022-12-27T20:56:55.471Z,27.62
2022-12-27T20:57:55.662Z,28.84
2022-12-27T20:58:55.701Z,29.15
2022-12-27T20:59:55.460Z,29.25
2022-12-27T21:00:55.625Z,30.99
2022-12-27T21:01:57.382Z,33.60
2022-12-27T21:02:55.612Z,38.15
2022-12-27T21:03:55.542Z,42.20
2022-12-27T21:04:55.539Z,42.92
2022-12-27T21:05:55.615Z,43.62
2022-12-27T21:06:55.585Z,49.86
2022-12-27T21:07:55.628Z,53.98
2022-12-27T21:08:57.748Z,59.93
2022-12-27T21:09:55.651Z,60.31
2022-12-27T21:10:55.756Z,62.10
2022-12-27T21:11:55.701Z,65.36
2022-12-27T21:12:55.737Z,67.56
2022-12-27T21:13:55.920Z,69.86
2022-12-27T21:14:55.972Z,69.60
2022-12-27T21:15:55.855Z,64.49
2022-12-27T21:16:55.905Z,59.04
2022-12-27T21:17:55.851Z,54.83
2022-12-27T21:18:56.058Z,53.37
2022-12-27T21:19:55.972Z,48.88
2022-12-27T21:20:56.050Z,50.70
2022-12-27T21:21:55.967Z,48.71
2022-12-27T21:22:55.957Z,51.10
2022-12-27T21:23:56.038Z,52.67
2022-12-27T21:24:56.180Z,53.63
2022-12-27T21:25:56.185Z,54.01
2022-12-27T21:26:56.642Z,53.10
2022-12-27T21:27:56.109Z,52.58
2022-12-27T21:28:56.156Z,51.44
2022-12-27T21:29:56.114Z,52.26
2022-12-27T21:30:56.418Z,50.42
2022-12-27T21:31:56.331Z,49.33
2022-12-27T21:32:56.293Z,47.73
2022-12-27T21:33:56.360Z,47.01
2022-12-27T21:34:56.306Z,44.76
2022-12-27T21:35:56.417Z,43.06
2022-12-27T21:36:56.322Z,38.39
2022-12-27T21:37:56.348Z,37.48
2022-12-27T21:38:56.402Z,38.23
2022-12-27T21:39:56.425Z,40.02
2022-12-27T21:40:56.398Z,42.33
2022-12-27T21:41:56.798Z,45.27
2022-12-27T21:42:56.727Z,47.89
2022-12-27T21:43:56.760Z,49.31
2022-12-27T21:44:56.599Z,52.83
2022-12-27T21:45:56.672Z,54.50
2022-12-27T21:46:56.679Z,54.61
2022-12-27T21:47:56.682Z,57.48
2022-12-27T21:48:56.624Z,59.78
2022-12-27T21:49:56.718Z,61.01
2022-12-27T21:50:56.725Z,60.59
2022-12-27T21:51:56.717Z,60.10
2022-12-27T21:52:56.688Z,58.36
2022-12-27T21:53:56.814Z,57.11
2022-12-27T21:54:56.762Z,53.68
2022-12-27T21:55:56.852Z,46.98
2022-12-27T21:56:56.777Z,38.94
2022-12-27T21:57:56.810Z,39.83
2022-12-27T21:58:56.831Z,39.56
2022-12-27T21:59:57.033Z,39.14
2022-12-27T22:00:58.146Z,33.75
2022-12-27T22:01:57.090Z,34.42
2022-12-27T22:02:57.198Z,35.21
2022-12-27T22:03:57.171Z,34.62
2022-12-27T22:04:57.128Z,35.92
2022-12-27T22:05:57.075Z,35.89
2022-12-27T22:06:57.121Z,36.88
2022-12-27T22:07:57.497Z,35.58
2022-12-27T22:08:57.163Z,35.83
2022-12-27T22:09:57.167Z,35.68
2022-12-27T22:10:57.122Z,37.74
2022-12-27T22:11:57.225Z,38.99
2022-12-27T22:12:57.326Z,40.81
2022-12-27T22:13:57.219Z,41.81
2022-12-27T22:14:57.354Z,42.77
2022-12-27T22:15:57.272Z,45.46
2022-12-27T22:16:57.221Z,45.47
2022-12-27T22:17:57.330Z,45.88
2022-12-27T22:18:57.912Z,46.00
2022-12-27T22:19:57.304Z,45.96
2022-12-27T22:20:57.382Z,46.64
2022-12-27T22:21:57.439Z,50.57
2022-12-27T22:22:57.357Z,50.32
2022-12-27T22:23:57.347Z,50.28
2022-12-27T22:24:57.448Z,49.81
2022-12-27T22:25:57.562Z,48.77
2022-12-27T22:26:57.528Z,48.13
2022-12-27T22:27:57.478Z,47.77
2022-12-27T22:28:57.509Z,45.28
2022-12-27T22:29:57.568Z,45.75
2022-12-27T22:30:57.633Z,47.42
2022-12-27T22:31:57.534Z,45.78
2022-12-27T22:32:57.599Z,44.87
2022-12-27T22:33:57.534Z,44.18
2022-12-27T22:34:57.544Z,42.28
2022-12-27T22:35:57.646Z,45.04
2022-12-27T22:36:57.673Z,46.37
2022-12-27T22:37:57.694Z,46.63
2022-12-27T22:38:57.709Z,46.89
2022-12-27T22:39:57.752Z,45.10
2022-12-27T22:40:57.691Z,41.02
2022-12-27T22:41:57.741Z,40.92
2022-12-27T22:42:57.847Z,41.39
2022-12-27T22:43:58.025Z,43.63
2022-12-27T22:44:57.965Z,43.60
2022-12-27T22:45:57.972Z,44.55
2022-12-27T22:47:24.994Z,46.47
2022-12-27T22:47:57.850Z,46.51
2022-12-27T22:48:57.924Z,46.51
2022-12-27T22:49:57.984Z,51.72
2022-12-27T22:50:57.923Z,126.64
2022-12-27T22:51:57.944Z,225.35
2022-12-27T22:52:58.176Z,282.36
2022-12-27T22:53:57.993Z,131.69
2022-12-27T22:55:05.844Z,98.65
2022-12-27T22:55:58.007Z,87.27
2022-12-27T22:56:58.005Z,64.06
2022-12-27T22:57:58.039Z,50.20
2022-12-27T22:58:58.068Z,43.66
2022-12-27T22:59:58.304Z,42.58
2022-12-27T23:00:58.200Z,41.12
2022-12-27T23:01:58.445Z,40.52
2022-12-27T23:02:58.198Z,40.50
2022-12-27T23:03:58.222Z,39.70
2022-12-27T23:04:58.486Z,39.43
2022-12-27T23:05:58.254Z,38.88
2022-12-27T23:06:58.336Z,39.01
2022-12-27T23:08:05.748Z,40.77
2022-12-27T23:08:58.348Z,40.91
2022-12-27T23:09:58.337Z,41.69
2022-12-27T23:10:58.383Z,50.10
2022-12-27T23:11:58.434Z,63.44
2022-12-27T23:12:58.336Z,64.22
2022-12-27T23:13:58.392Z,51.68
2022-12-27T23:14:58.464Z,46.84
2022-12-27T23:15:58.709Z,44.99
2022-12-27T23:16:58.394Z,43.78
2022-12-27T23:17:58.522Z,42.65
2022-12-27T23:18:58.476Z,40.49
2022-12-27T23:19:58.421Z,41.17
2022-12-27T23:21:20.990Z,39.84
2022-12-27T23:21:58.464Z,39.88
2022-12-27T23:22:58.474Z,39.29
2022-12-27T23:23:58.517Z,38.32
2022-12-27T23:24:58.520Z,38.51
2022-12-27T23:25:58.526Z,37.73
2022-12-27T23:26:58.552Z,37.58
2022-12-27T23:27:58.558Z,37.41
2022-12-27T23:28:58.521Z,37.04
2022-12-27T23:29:58.531Z,37.67
2022-12-27T23:30:58.553Z,38.28
2022-12-27T23:31:58.658Z,40.86
2022-12-27T23:32:58.574Z,42.07
2022-12-27T23:33:58.578Z,43.79
2022-12-27T23:34:58.564Z,42.79
2022-12-27T23:35:58.596Z,43.58
2022-12-27T23:36:58.731Z,45.72
2022-12-27T23:37:58.630Z,47.58
2022-12-27T23:38:58.634Z,49.11
2022-12-27T23:39:58.647Z,50.07
2022-12-27T23:40:58.653Z,51.08
2022-12-27T23:41:58.775Z,52.60
2022-12-27T23:43:12.474Z,53.20
2022-12-27T23:43:58.955Z,53.29
2022-12-27T23:44:58.746Z,53.44
2022-12-27T23:45:58.753Z,53.10
2022-12-27T23:46:58.844Z,52.05
2022-12-27T23:47:58.797Z,50.56
2022-12-27T23:48:58.836Z,51.85
2022-12-27T23:49:58.918Z,49.53
2022-12-27T23:50:59.098Z,51.25
2022-12-27T23:51:59.115Z,50.52
2022-12-27T23:52:58.997Z,49.68
2022-12-27T23:53:59.206Z,48.83
2022-12-27T23:54:59.164Z,50.45
2022-12-27T23:55:59.435Z,49.01
2022-12-27T23:57:22.477Z,49.40
2022-12-27T23:58:00.033Z,49.52
2022-12-27T23:58:59.130Z,49.54
2022-12-27T23:59:59.204Z,50.05
